Time;durP1;ratioP1;P1;durP2;ratioP2;P2;SDS_P1;SDS_P2;PMS_P1;PMS_P2;Temp;Humidity;BMP_temperature;BMP_pressure;BME280_temperature;BME280_humidity;BME280_pressure;Samples;Min_cycle;Max_cycle;Signal;HPM_P1;HPM_P2
2021/12/24 00:00:57;;;;;;;45.93;24.03;;;;;;;-1.29;100.00;99237.00;10543179;28;20230;-71
2021/12/24 00:06:03;;;;;;;51.13;23.83;;;;;;;-1.29;100.00;99237.00;10542731;28;20242;-65
2021/12/24 00:11:07;;;;;;;48.53;23.43;;;;;;;-1.28;100.00;99223.47;10542700;28;20242;-71
2021/12/24 00:16:20;;;;;;;48.77;24.77;;;;;;;-1.31;100.00;99215.75;10542758;28;20210;-66
2021/12/24 00:37:28;;;;;;;46.07;23.27;;;;;;;-1.32;100.00;99188.63;10542232;28;20229;-67
2021/12/24 00:42:31;;;;;;;42.80;23.20;;;;;;;-1.32;100.00;99183.53;10542051;28;20222;-68
2021/12/24 00:47:34;;;;;;;44.43;23.23;;;;;;;-1.30;100.00;99169.16;10541987;28;20223;-64
2021/12/24 00:52:52;;;;;;;47.73;24.70;;;;;;;-1.33;100.00;99171.66;10541997;28;20545;-67
2021/12/24 00:57:57;;;;;;;48.97;24.77;;;;;;;-1.35;100.00;99155.50;10543009;28;20713;-67
2021/12/24 01:03:02;;;;;;;46.70;23.30;;;;;;;-1.34;100.00;99152.97;10551012;28;20613;-66
2021/12/24 01:08:09;;;;;;;45.43;23.47;;;;;;;-1.34;100.00;99126.66;10549818;28;20253;-64
2021/12/24 01:13:13;;;;;;;47.20;25.87;;;;;;;-1.34;100.00;99111.41;10549851;28;20212;-67
2021/12/24 01:18:24;;;;;;;44.90;22.90;;;;;;;-1.36;100.00;99102.88;10549524;28;20220;-66
2021/12/24 01:23:35;;;;;;;44.00;23.40;;;;;;;-1.36;100.00;99088.47;10549384;28;20235;-64
2021/12/24 01:28:50;;;;;;;44.20;23.57;;;;;;;-1.33;100.00;99080.06;10549271;28;20235;-65
2021/12/24 01:39:22;;;;;;;49.20;24.90;;;;;;;-1.31;100.00;99065.66;10548716;28;20227;-66
2021/12/24 01:44:27;;;;;;;48.77;23.27;;;;;;;-1.31;100.00;99058.00;10548586;28;20219;-64
2021/12/24 01:49:30;;;;;;;49.07;24.90;;;;;;;-1.31;100.00;99046.16;10548213;28;20219;-70
2021/12/24 01:54:35;;;;;;;44.53;22.30;;;;;;;-1.27;100.00;99036.88;10548019;28;20290;-63
2021/12/24 01:59:39;;;;;;;46.87;22.93;;;;;;;-1.27;100.00;99021.63;10545722;28;20219;-74
2021/12/24 02:04:42;;;;;;;45.47;22.93;;;;;;;-1.25;100.00;99014.88;10152475;28;10000768;-67
2021/12/24 02:09:47;;;;;;;42.70;22.00;;;;;;;-1.24;100.00;98986.03;10501614;28;20227;-68
2021/12/24 02:14:53;;;;;;;41.47;22.87;;;;;;;-1.21;100.00;98991.19;10502390;28;20226;-69
2021/12/24 02:30:39;;;;;;;42.00;21.70;;;;;;;-1.14;100.00;98989.56;10501704;28;20534;-68
2021/12/24 02:35:44;;;;;;;39.90;23.47;;;;;;;-1.16;100.00;98969.19;10501554;28;20665;-64
2021/12/24 02:40:48;;;;;;;40.20;21.77;;;;;;;-1.16;100.00;98949.66;10501213;28;20246;-65
2021/12/24 02:45:58;;;;;;;41.87;22.07;;;;;;;-1.06;100.00;98940.47;10500747;28;20235;-68
2021/12/24 02:56:30;;;;;;;42.23;21.20;;;;;;;-1.05;100.00;98933.72;10500650;28;20519;-68
2021/12/24 03:01:35;;;;;;;47.13;22.53;;;;;;;-0.99;100.00;98916.81;10539366;28;20215;-66
2021/12/24 03:06:42;;;;;;;47.27;22.70;;;;;;;-0.96;100.00;98899.03;10584048;28;20684;-63
2021/12/24 03:11:47;;;;;;;44.67;21.47;;;;;;;-0.95;100.00;98880.38;10584235;28;20544;-66
2021/12/24 03:16:57;;;;;;;42.33;20.93;;;;;;;-0.97;100.00;98876.09;10586063;28;20313;-68
2021/12/24 03:22:12;;;;;;;39.70;21.13;;;;;;;-0.95;100.00;98885.47;10586783;28;20798;-64
2021/12/24 03:27:16;;;;;;;41.77;23.03;;;;;;;-0.92;100.00;98860.03;10586321;28;20241;-63
2021/12/24 03:32:19;;;;;;;41.00;21.60;;;;;;;-0.88;100.00;98843.94;10586530;28;20215;-66
2021/12/24 03:37:23;;;;;;;41.27;21.73;;;;;;;-0.87;100.00;98850.75;10586132;28;20592;-72
2021/12/24 03:42:27;;;;;;;41.40;20.73;;;;;;;-0.83;100.00;98841.47;10586151;28;20211;-67
2021/12/24 03:47:35;;;;;;;39.53;21.93;;;;;;;-0.86;100.00;98826.16;10585707;28;20227;-68
2021/12/24 03:53:02;;;;;;;37.23;19.83;;;;;;;-0.85;100.00;98828.72;10586431;28;20683;-65
2021/12/24 03:58:05;;;;;;;41.03;21.47;;;;;;;-0.78;100.00;98839.81;10585422;28;20244;-66
2021/12/24 04:03:09;;;;;;;38.13;19.77;;;;;;;-0.74;100.00;98832.22;10585161;28;20657;-67
2021/12/24 04:08:13;;;;;;;36.87;20.90;;;;;;;-0.73;100.00;98823.75;10584832;28;20226;-68
2021/12/24 04:13:17;;;;;;;40.33;20.70;;;;;;;-0.72;100.00;98810.16;10584895;28;20741;-67
2021/12/24 04:18:34;;;;;;;41.33;19.57;;;;;;;-0.74;100.00;98800.81;10584503;28;20309;-67
2021/12/24 04:28:59;;;;;;;39.13;20.07;;;;;;;-0.77;100.00;98763.44;10584219;28;20222;-67
2021/12/24 04:34:03;;;;;;;37.00;21.33;;;;;;;-0.77;100.00;98765.97;10583712;28;20221;-63
2021/12/24 05:06:13;;;;;;;42.30;20.40;;;;;;;-0.45;100.00;98772.19;10583626;28;20235;-68
2021/12/24 05:11:19;;;;;;;38.57;19.30;;;;;;;-0.43;100.00;98757.75;10582858;28;20231;-67
2021/12/24 05:16:25;;;;;;;49.43;23.97;;;;;;;-0.40;100.00;98755.22;10584648;28;20257;-66
2021/12/24 05:21:36;;;;;;;43.80;21.57;;;;;;;-0.36;100.00;98753.56;10583794;28;20229;-68
2021/12/24 05:26:41;;;;;;;36.77;19.67;;;;;;;-0.34;100.00;98746.78;10583438;28;20312;-67
2021/12/24 05:31:46;;;;;;;38.30;19.60;;;;;;;-0.29;100.00;98740.88;10583247;28;20233;-64
2021/12/24 05:36:50;;;;;;;34.53;18.73;;;;;;;-0.29;100.00;98735.78;10583865;28;20206;-69
2021/12/24 05:41:55;;;;;;;40.30;20.13;;;;;;;-0.26;100.00;98727.31;10583280;28;20215;-64
2021/12/24 05:46:58;;;;;;;37.27;19.53;;;;;;;-0.23;100.00;98715.44;10588647;28;20219;-68
2021/12/24 05:52:02;;;;;;;34.67;19.20;;;;;;;-0.21;100.00;98725.66;10590396;28;20659;-67
2021/12/24 05:57:07;;;;;;;37.13;18.60;;;;;;;-0.20;100.00;98710.34;10590416;28;20211;-69
2021/12/24 06:02:10;;;;;;;38.40;19.40;;;;;;;-0.14;100.00;98709.53;10590221;28;20221;-73
2021/12/24 06:07:13;;;;;;;33.77;19.30;;;;;;;-0.17;100.00;98714.59;10589407;28;20230;-64
2021/12/24 06:12:18;;;;;;;34.07;18.00;;;;;;;-0.15;100.00;98711.22;10589896;28;20302;-66
2021/12/24 06:17:23;;;;;;;36.20;19.30;;;;;;;-0.09;100.00;98708.69;10589347;28;20214;-69
2021/12/24 06:22:26;;;;;;;35.70;19.37;;;;;;;-0.07;100.00;98716.38;10589514;28;20215;-66
2021/12/24 06:27:31;;;;;;;37.43;19.27;;;;;;;-0.02;100.00;98704.50;10588783;28;20215;-69
2021/12/24 06:32:34;;;;;;;35.93;19.50;;;;;;;-0.02;100.00;98707.88;10589147;28;20217;-69
2021/12/24 06:37:39;;;;;;;35.20;19.03;;;;;;;0.02;100.00;98708.75;10588622;28;20215;-68
2021/12/24 06:42:43;;;;;;;34.83;18.90;;;;;;;0.02;100.00;98707.94;10588636;28;20686;-67
2021/12/24 06:47:47;;;;;;;38.97;20.13;;;;;;;0.07;100.00;98703.69;10587976;28;20305;-68
2021/12/24 06:52:50;;;;;;;39.67;20.87;;;;;;;0.15;100.00;98707.13;10588335;28;20302;-66
2021/12/24 06:57:59;;;;;;;35.27;18.93;;;;;;;0.17;100.00;98693.56;10587164;28;20423;-71
2021/12/24 07:03:05;;;;;;;32.77;18.70;;;;;;;0.19;100.00;98683.34;10587452;28;20237;-66
2021/12/24 07:08:08;;;;;;;33.47;18.63;;;;;;;0.22;100.00;98678.25;10587416;28;20251;-69
2021/12/24 07:13:13;;;;;;;36.13;19.77;;;;;;;0.20;100.00;98685.03;10587545;28;20254;-65
2021/12/24 07:18:16;;;;;;;33.23;19.33;;;;;;;0.22;100.00;98685.91;10586819;28;20214;-66
2021/12/24 07:23:19;;;;;;;35.40;20.50;;;;;;;0.26;100.00;98675.69;10586735;28;20215;-71
2021/12/24 07:28:28;;;;;;;37.13;22.27;;;;;;;0.29;100.00;98663.00;10586388;28;20552;-64
2021/12/24 07:33:31;;;;;;;36.57;20.27;;;;;;;0.35;100.00;98685.09;10586463;28;20298;-66
2021/12/24 07:38:35;;;;;;;34.97;18.90;;;;;;;0.36;100.00;98695.31;10584744;28;20237;-64
2021/12/24 07:43:39;;;;;;;34.83;19.90;;;;;;;0.37;100.00;98693.59;10202037;27;9999810;-66
2021/12/24 07:48:48;;;;;;;36.87;20.00;;;;;;;0.48;100.00;98690.25;10539861;28;20669;-65
2021/12/24 07:53:59;;;;;;;32.13;18.97;;;;;;;0.59;100.00;98691.13;10540184;28;20368;-65
2021/12/24 07:59:03;;;;;;;42.67;19.77;;;;;;;0.68;100.00;98690.28;10540096;28;20699;-64
2021/12/24 08:04:07;;;;;;;37.03;20.67;;;;;;;0.71;100.00;98691.13;10539924;28;20300;-67
2021/12/24 08:09:11;;;;;;;37.13;19.00;;;;;;;0.81;100.00;98704.78;10538940;28;20219;-70
2021/12/24 08:14:15;;;;;;;32.20;18.50;;;;;;;0.89;100.00;98701.41;10539497;28;20225;-65
2021/12/24 08:19:18;;;;;;;30.30;18.03;;;;;;;0.92;100.00;98711.59;10539558;28;20685;-69
2021/12/24 08:24:22;;;;;;;38.20;18.93;;;;;;;0.89;100.00;98705.66;10539305;28;20311;-70
2021/12/24 08:29:26;;;;;;;32.60;19.27;;;;;;;0.91;100.00;98698.84;10539410;28;20219;-68
2021/12/24 08:34:30;;;;;;;35.47;19.23;;;;;;;0.96;100.00;98700.56;10539492;28;20227;-66
2021/12/24 08:39:33;;;;;;;32.77;18.80;;;;;;;1.06;100.00;98684.38;10538964;28;20215;-66
2021/12/24 08:44:38;;;;;;;34.67;18.87;;;;;;;1.04;100.00;98675.00;10538840;28;20701;-73
2021/12/24 08:49:42;;;;;;;37.30;19.53;;;;;;;1.00;100.00;98673.31;10538545;28;20226;-66
2021/12/24 08:54:45;;;;;;;33.37;18.90;;;;;;;1.07;100.00;98655.44;10538657;28;20653;-68
2021/12/24 08:59:52;;;;;;;33.30;18.27;;;;;;;1.10;100.00;98646.94;10538463;28;20734;-66
2021/12/24 09:04:56;;;;;;;72.13;37.17;;;;;;;1.22;100.00;98648.63;10538340;28;20232;-66
2021/12/24 09:09:59;;;;;;;31.20;18.77;;;;;;;1.22;100.00;98638.41;10538457;28;20333;-65
2021/12/24 09:15:05;;;;;;;31.43;18.33;;;;;;;1.24;100.00;98641.81;10537412;28;20245;-67
2021/12/24 09:20:11;;;;;;;30.23;17.30;;;;;;;1.26;100.00;98625.59;10539869;28;20215;-66
2021/12/24 09:25:15;;;;;;;32.07;17.33;;;;;;;1.27;100.00;98624.78;10546141;28;20223;-66
2021/12/24 09:30:22;;;;;;;30.83;18.10;;;;;;;1.21;100.00;98614.53;10546246;28;20223;-70
2021/12/24 09:35:26;;;;;;;33.93;18.40;;;;;;;1.19;100.00;98616.28;10545811;28;20228;-65
2021/12/24 09:40:30;;;;;;;44.27;24.47;;;;;;;1.19;100.00;98608.63;10546650;28;20680;-70
2021/12/24 09:45:35;;;;;;;31.83;17.60;;;;;;;1.23;100.00;98607.72;10587801;28;20225;-70
2021/12/24 09:50:39;;;;;;;38.93;23.07;;;;;;;1.27;100.00;98606.03;10587160;28;20257;-69
2021/12/24 09:55:42;;;;;;;35.33;18.80;;;;;;;1.31;100.00;98598.38;10587070;28;20725;-65
2021/12/24 10:00:47;;;;;;;35.23;18.00;;;;;;;1.44;100.00;98589.81;10590012;28;20214;-68
2021/12/24 10:05:52;;;;;;;31.30;18.63;;;;;;;1.52;100.00;98588.06;10590657;28;20552;-66
2021/12/24 10:11:03;;;;;;;35.47;19.17;;;;;;;1.54;100.00;98586.38;10589536;28;20615;-66
2021/12/24 10:16:12;;;;;;;33.17;19.17;;;;;;;1.56;100.00;98584.66;10590001;28;20233;-70
2021/12/24 10:21:18;;;;;;;33.80;18.73;;;;;;;1.53;100.00;98589.78;10589061;28;20301;-64
2021/12/24 10:26:27;;;;;;;31.40;17.30;;;;;;;1.61;100.00;98580.38;10589201;28;20211;-65
2021/12/24 10:31:34;;;;;;;31.03;18.03;;;;;;;1.56;100.00;98561.66;10584687;28;20218;-68
2021/12/24 10:37:02;;;;;;;32.30;18.20;;;;;;;1.63;100.00;98558.22;10584404;28;20246;-66
2021/12/24 10:42:10;;;;;;;39.53;20.43;;;;;;;1.65;100.00;98568.44;10557798;28;20558;-67
2021/12/24 10:47:19;;;;;;;35.13;18.80;;;;;;;1.65;100.00;98553.09;10585267;28;20245;-64
2021/12/24 10:57:47;;;;;;;32.07;17.87;;;;;;;1.78;100.00;98526.63;10584531;28;20238;-71
2021/12/24 11:02:54;;;;;;;35.47;18.97;;;;;;;1.68;100.00;98515.59;10586983;28;20219;-67
2021/12/24 11:07:59;;;;;;;32.47;18.93;;;;;;;1.57;100.00;98503.72;10587432;28;20221;-66
2021/12/24 11:13:08;;;;;;;35.57;19.30;;;;;;;1.53;100.00;98505.44;10587457;28;20552;-66
2021/12/24 11:18:17;;;;;;;32.57;19.50;;;;;;;1.50;100.00;98508.00;10587224;28;20215;-66
2021/12/24 11:23:23;;;;;;;38.53;19.90;;;;;;;1.66;100.00;98513.88;10586509;28;20551;-64
2021/12/24 11:28:27;;;;;;;34.23;18.50;;;;;;;1.54;100.00;98525.03;10586286;28;20215;-68
2021/12/24 11:33:34;;;;;;;41.50;20.63;;;;;;;1.55;100.00;98513.09;10586624;28;20544;-67
2021/12/24 11:38:39;;;;;;;36.67;20.87;;;;;;;1.52;100.00;98511.41;10586069;28;20615;-66
2021/12/24 11:43:44;;;;;;;37.67;19.27;;;;;;;1.61;100.00;98516.47;10586609;28;20223;-65
2021/12/24 11:48:51;;;;;;;35.00;19.10;;;;;;;1.71;100.00;98513.00;10585737;28;20228;-67
2021/12/24 11:53:59;;;;;;;64.13;32.40;;;;;;;1.69;100.00;98498.56;10585696;28;20241;-67
2021/12/24 11:59:03;;;;;;;32.20;17.43;;;;;;;1.82;100.00;98495.91;10585605;28;20215;-67
2021/12/24 12:04:18;;;;;;;32.73;17.20;;;;;;;1.75;100.00;98476.34;10585190;28;20222;-66
2021/12/24 12:09:21;;;;;;;31.67;16.90;;;;;;;1.77;100.00;98497.66;10584962;28;20298;-70
2021/12/24 12:14:27;;;;;;;31.70;17.73;;;;;;;1.80;100.00;98482.28;10584933;28;20219;-67
2021/12/24 12:19:43;;;;;;;28.57;15.77;;;;;;;1.97;100.00;98482.19;10584776;28;20225;-68
2021/12/24 12:30:22;;;;;;;26.37;16.03;;;;;;;1.99;100.00;98490.69;10584348;28;20290;-69
2021/12/24 12:35:37;;;;;;;27.27;15.40;;;;;;;1.95;100.00;98501.81;10584295;28;20301;-67
2021/12/24 12:40:40;;;;;;;25.13;14.50;;;;;;;1.85;100.00;98490.78;10584306;28;20222;-66
2021/12/24 12:45:59;;;;;;;24.73;13.30;;;;;;;1.89;100.00;98479.69;10584436;28;20223;-72
2021/12/24 12:51:04;;;;;;;23.80;13.67;;;;;;;1.81;100.00;98483.97;10584279;28;20230;-70
2021/12/24 12:56:15;;;;;;;23.95;13.63;;;;;;;1.68;100.00;98489.16;10588723;28;20482;-64
2021/12/24 13:01:20;;;;;;;31.17;17.40;;;;;;;1.82;100.00;98475.47;10592753;28;20223;-70
2021/12/24 13:06:26;;;;;;;21.77;13.00;;;;;;;1.91;100.00;98464.34;10592203;28;20245;-66
2021/12/24 13:11:35;;;;;;;20.20;12.23;;;;;;;1.88;100.00;98479.69;10592143;28;20226;-67
2021/12/24 13:16:44;;;;;;;27.83;16.40;;;;;;;1.82;100.00;98485.69;10590490;28;20814;-64
2021/12/24 13:27:16;;;;;;;22.63;12.17;;;;;;;1.86;100.00;98482.28;10591513;28;20222;-65
2021/12/24 13:32:19;;;;;;;24.60;12.53;;;;;;;1.83;100.00;98492.50;10590965;28;20314;-68
2021/12/24 13:37:30;;;;;;;23.17;12.97;;;;;;;1.78;100.00;98488.25;10591238;28;20221;-64
2021/12/24 13:42:41;;;;;;;20.63;12.53;;;;;;;1.70;100.00;98474.69;10590714;28;20687;-64
2021/12/24 13:48:00;;;;;;;25.53;12.87;;;;;;;1.77;100.00;98466.13;10590744;28;20211;-70
2021/12/24 13:58:31;;;;;;;20.77;11.77;;;;;;;1.79;100.00;98470.38;10590257;28;20700;-67
2021/12/24 14:03:35;;;;;;;21.33;11.23;;;;;;;1.80;100.00;98443.06;10589914;28;20253;-70
2021/12/24 14:08:39;;;;;;;25.27;12.33;;;;;;;1.79;100.00;98436.28;10589784;28;20245;-67
2021/12/24 14:13:47;;;;;;;23.73;11.23;;;;;;;1.81;100.00;98445.63;10589619;28;20226;-67
2021/12/24 14:18:53;;;;;;;25.70;12.33;;;;;;;1.83;100.00;98430.28;10589678;28;20210;-68
2021/12/24 14:24:12;;;;;;;23.73;12.20;;;;;;;1.87;100.00;98422.59;10589535;28;20267;-70
2021/12/24 14:29:26;;;;;;;23.23;11.80;;;;;;;1.86;100.00;98426.00;10588889;28;20218;-72
2021/12/24 14:34:47;;;;;;;23.73;11.63;;;;;;;1.88;100.00;98418.31;10588837;28;20632;-68
2021/12/24 14:39:54;;;;;;;25.23;13.60;;;;;;;1.83;100.00;98420.91;10588393;28;20249;-72
2021/12/24 14:45:15;;;;;;;20.20;11.30;;;;;;;1.68;100.00;98425.25;10588864;28;20242;-69
2021/12/24 14:50:19;;;;;;;32.17;15.57;;;;;;;1.83;100.00;98413.22;10587933;28;20732;-68
2021/12/24 14:55:24;;;;;;;23.67;12.23;;;;;;;1.85;100.00;98423.44;10588236;28;20190;-68
2021/12/24 15:00:31;;;;;;;22.47;12.70;;;;;;;1.81;100.00;98450.75;10588997;28;20191;-71
2021/12/24 15:05:37;;;;;;;21.60;11.40;;;;;;;1.87;100.00;98437.94;10587549;28;20313;-66
2021/12/24 15:10:54;;;;;;;22.17;11.37;;;;;;;1.96;100.00;98453.22;10587756;28;20644;-68
2021/12/24 15:16:02;;;;;;;25.77;14.43;;;;;;;1.89;100.00;98427.69;10587262;28;20190;-66
2021/12/24 15:21:05;;;;;;;20.43;10.67;;;;;;;1.85;100.00;98424.28;10587130;28;20205;-66
2021/12/24 15:26:10;;;;;;;22.80;12.03;;;;;;;1.86;100.00;98423.44;10587193;28;20191;-67
2021/12/24 15:31:15;;;;;;;21.63;10.77;;;;;;;1.96;100.00;98453.22;10586723;28;20215;-65
2021/12/24 15:36:19;;;;;;;20.60;11.03;;;;;;;1.88;100.00;98446.47;10586461;28;20187;-69
2021/12/24 15:41:24;;;;;;;18.70;10.53;;;;;;;1.90;100.00;98431.94;10586166;28;20277;-68
2021/12/24 15:46:28;;;;;;;22.83;11.10;;;;;;;1.84;100.00;98412.38;10586525;28;20205;-67
2021/12/24 15:51:31;;;;;;;22.00;11.03;;;;;;;1.96;100.00;98442.13;10585854;28;20648;-67
2021/12/24 15:56:38;;;;;;;22.17;11.77;;;;;;;1.98;100.00;98437.84;10585784;28;20214;-66
2021/12/24 16:01:41;;;;;;;21.47;10.87;;;;;;;1.84;100.00;98416.63;10585431;27;20266;-72
2021/12/24 16:06:45;;;;;;;22.40;11.30;;;;;;;1.92;100.00;98431.06;10585162;28;20719;-70
2021/12/24 16:11:50;;;;;;;21.37;10.87;;;;;;;2.09;100.00;98430.94;10585187;28;20682;-66
2021/12/24 16:16:54;;;;;;;20.67;10.53;;;;;;;2.16;100.00;98430.88;10585422;28;20195;-68
2021/12/24 16:21:57;;;;;;;54.47;24.37;;;;;;;2.06;100.00;98428.41;10584808;28;20225;-66
2021/12/24 16:27:01;;;;;;;20.47;9.20;;;;;;;2.16;100.00;98440.25;10584838;28;20225;-69
2021/12/24 16:32:05;;;;;;;22.17;10.00;;;;;;;2.03;100.00;98431.84;10583653;28;20218;-65
2021/12/24 16:37:09;;;;;;;17.23;8.73;;;;;;;1.95;100.00;98420.81;10584614;28;20633;-67
2021/12/24 16:42:15;;;;;;;18.93;9.53;;;;;;;1.98;100.00;98431.03;10584788;28;20198;-67
2021/12/24 16:47:19;;;;;;;19.13;9.73;;;;;;;1.96;100.00;98427.63;10584358;28;20245;-68
2021/12/24 16:52:22;;;;;;;18.17;8.50;;;;;;;1.77;100.00;98436.28;10584117;28;20279;-70
2021/12/24 16:57:27;;;;;;;27.37;12.20;;;;;;;1.72;100.00;98430.38;10584151;28;20201;-67
2021/12/24 17:02:30;;;;;;;19.83;9.00;;;;;;;1.66;100.00;98432.94;10583977;28;20205;-69
2021/12/24 17:07:34;;;;;;;15.97;9.10;;;;;;;1.68;100.00;98435.47;10583739;28;20310;-66
2021/12/24 17:12:39;;;;;;;18.70;9.73;;;;;;;1.64;100.00;98442.31;10584411;28;20242;-70
2021/12/24 17:17:42;;;;;;;18.30;9.63;;;;;;;1.70;100.00;98437.19;10583763;28;20239;-69
2021/12/24 17:22:46;;;;;;;19.37;10.30;;;;;;;1.70;100.00;98442.31;10583863;28;20548;-68
2021/12/24 17:27:51;;;;;;;16.50;9.27;;;;;;;1.70;100.00;98444.84;10583704;28;20276;-67
2021/12/24 17:32:54;;;;;;;19.90;9.03;;;;;;;1.78;100.00;98435.41;10583403;28;20211;-70
2021/12/24 17:37:58;;;;;;;18.40;9.73;;;;;;;1.76;100.00;98428.63;10583224;28;20215;-69
2021/12/24 17:43:03;;;;;;;19.27;10.07;;;;;;;1.77;100.00;98435.44;10589174;28;20221;-68
2021/12/24 17:48:07;;;;;;;15.93;9.13;;;;;;;1.90;100.00;98439.59;10591008;28;20225;-70
2021/12/24 17:53:11;;;;;;;17.97;9.30;;;;;;;1.84;100.00;98442.22;10590397;28;20306;-66
2021/12/24 17:58:15;;;;;;;18.00;9.77;;;;;;;1.73;100.00;98446.53;10590519;28;20229;-68
2021/12/24 18:03:18;;;;;;;17.40;9.93;;;;;;;1.78;100.00;98445.66;10590135;27;20249;-68
2021/12/24 18:08:22;;;;;;;16.43;9.20;;;;;;;1.72;100.00;98457.63;10590349;28;20225;-66
2021/12/24 18:13:31;;;;;;;16.30;9.27;;;;;;;1.70;100.00;98460.19;10589988;28;20222;-67
2021/12/24 18:18:34;;;;;;;18.90;8.77;;;;;;;1.57;100.00;98475.63;10589613;28;20298;-72
2021/12/24 18:23:38;;;;;;;15.10;8.47;;;;;;;1.66;100.00;98483.22;10589464;28;20231;-68
2021/12/24 18:28:43;;;;;;;17.37;10.13;;;;;;;1.64;100.00;98480.66;10589522;28;20211;-67
2021/12/24 18:33:46;;;;;;;20.27;10.37;;;;;;;1.59;100.00;98484.13;10589253;28;20211;-66
2021/12/24 18:38:50;;;;;;;17.07;8.63;;;;;;;1.48;100.00;98507.19;10588610;28;20214;-67
2021/12/24 18:43:56;;;;;;;15.87;8.87;;;;;;;1.47;100.00;98508.00;10588571;28;20215;-69
2021/12/24 18:49:00;;;;;;;17.20;9.40;;;;;;;1.49;100.00;98521.63;10553875;28;20231;-71
2021/12/24 18:54:03;;;;;;;23.00;14.20;;;;;;;1.54;100.00;98511.38;10545100;28;20223;-65
2021/12/24 18:59:07;;;;;;;18.27;10.50;;;;;;;1.47;100.00;98509.75;10546067;28;20257;-70
2021/12/24 19:04:11;;;;;;;16.03;9.27;;;;;;;1.52;100.00;98515.69;10545378;28;20235;-67
2021/12/24 19:09:14;;;;;;;16.77;9.53;;;;;;;1.63;100.00;98519.03;10545445;28;20219;-67
2021/12/24 19:14:19;;;;;;;14.17;9.27;;;;;;;1.59;100.00;98530.97;10545273;28;20578;-66
2021/12/24 19:19:22;;;;;;;17.73;10.17;;;;;;;1.50;100.00;98533.56;10545079;28;20517;-71
2021/12/24 19:24:25;;;;;;;19.30;10.87;;;;;;;1.46;100.00;98525.91;10544717;28;20672;-67
2021/12/24 19:29:30;;;;;;;17.30;9.80;;;;;;;1.63;100.00;98529.25;10544484;28;20211;-69
2021/12/24 19:34:33;;;;;;;18.03;10.57;;;;;;;1.53;100.00;98543.78;10544282;28;20234;-67
2021/12/24 19:39:37;;;;;;;18.87;9.87;;;;;;;1.49;100.00;98554.00;10544107;28;20231;-67
2021/12/24 19:44:41;;;;;;;19.00;11.60;;;;;;;1.54;100.00;98555.69;10543824;28;20302;-68
2021/12/24 19:49:45;;;;;;;19.27;9.93;;;;;;;1.59;100.00;98571.88;10543760;28;20222;-67
2021/12/24 19:54:48;;;;;;;18.87;9.83;;;;;;;1.64;100.00;98580.38;10543617;28;20231;-66
2021/12/24 19:59:53;;;;;;;34.30;20.40;;;;;;;1.73;100.00;98588.00;10543596;28;20672;-67
2021/12/24 20:04:56;;;;;;;21.80;11.83;;;;;;;1.73;100.00;98598.25;10542905;28;20235;-67
2021/12/24 20:09:59;;;;;;;18.47;10.77;;;;;;;1.70;100.00;98605.06;10543099;28;20223;-65
2021/12/24 20:15:04;;;;;;;18.07;9.57;;;;;;;1.76;100.00;98634.00;10543011;28;20215;-67
2021/12/24 20:20:09;;;;;;;17.93;10.20;;;;;;;1.70;100.00;98625.53;10542870;28;20219;-66
2021/12/24 20:25:14;;;;;;;19.90;10.47;;;;;;;1.73;100.00;98626.34;10542801;28;20219;-68
2021/12/24 20:30:22;;;;;;;14.33;7.27;;;;;;;1.67;100.00;98639.19;10542723;28;20328;-66
2021/12/24 20:35:26;;;;;;;17.70;9.00;;;;;;;1.69;100.00;98637.44;10542474;28;20226;-69
2021/12/24 20:40:29;;;;;;;17.47;8.97;;;;;;;1.62;100.00;98645.16;10542253;28;20693;-65
2021/12/24 20:45:35;;;;;;;17.87;10.37;;;;;;;1.71;100.00;98645.97;10542697;28;20306;-64
2021/12/24 20:50:39;;;;;;;15.87;8.43;;;;;;;1.64;100.00;98658.78;10541984;28;20230;-68
2021/12/24 20:55:44;;;;;;;16.33;10.03;;;;;;;1.54;100.00;98662.19;10542022;28;20227;-66
2021/12/24 21:00:48;;;;;;;16.40;9.07;;;;;;;1.56;100.00;98670.72;10541744;28;20222;-66
2021/12/24 21:05:52;;;;;;;16.30;9.90;;;;;;;1.70;100.00;98687.75;10541062;28;20381;-70
2021/12/24 21:10:55;;;;;;;16.60;9.77;;;;;;;1.61;100.00;98684.34;10541526;28;20211;-69
2021/12/24 21:16:00;;;;;;;14.50;8.70;;;;;;;1.62;100.00;98694.59;10544348;28;20563;-65
2021/12/24 21:21:03;;;;;;;19.17;9.43;;;;;;;1.66;100.00;98678.38;10549789;28;20224;-64
2021/12/24 21:26:06;;;;;;;17.37;10.27;;;;;;;1.58;100.00;98692.00;10549621;28;20219;-64
2021/12/24 21:31:11;;;;;;;14.37;8.60;;;;;;;1.60;100.00;98700.53;10549433;28;20221;-66
2021/12/24 21:36:15;;;;;;;21.97;10.23;;;;;;;1.73;100.00;98697.09;10549418;28;20664;-65
2021/12/24 21:41:19;;;;;;;14.27;8.50;;;;;;;1.63;100.00;98709.06;10548978;28;20220;-69
2021/12/24 21:46:24;;;;;;;17.47;9.77;;;;;;;1.32;100.00;98744.84;10546802;28;20219;-67
2021/12/24 21:51:27;;;;;;;12.50;6.87;;;;;;;1.38;100.00;98763.56;10545540;28;20219;-66
2021/12/24 21:56:31;;;;;;;14.97;7.27;;;;;;;1.35;100.00;98781.47;10545302;28;20238;-66
2021/12/24 22:01:36;;;;;;;12.63;5.47;;;;;;;1.40;100.00;98792.53;10544895;28;20242;-64
2021/12/24 22:12:03;;;;;;;6.50;2.97;;;;;;;1.25;100.00;98828.31;10519375;28;20235;-68
2021/12/24 22:17:08;;;;;;;5.93;2.03;;;;;;;1.24;100.00;98856.41;10544370;28;20245;-66
2021/12/24 22:22:28;;;;;;;17.20;8.90;;;;;;;1.16;100.00;98854.69;10543664;28;20226;-69
2021/12/24 22:27:36;;;;;;;5.43;2.20;;;;;;;1.10;100.00;98871.69;10210622;27;10000243;-67
2021/12/24 22:32:41;;;;;;;3.97;2.00;;;;;;;1.08;100.00;98892.13;10585916;28;20266;-68
2021/12/24 22:37:45;;;;;;;5.27;1.90;;;;;;;1.07;100.00;98910.00;10585674;28;20214;-69
2021/12/24 22:42:48;;;;;;;5.37;1.57;;;;;;;1.00;100.00;98926.16;10585967;28;20231;-68
2021/12/24 22:47:54;;;;;;;4.03;1.57;;;;;;;1.00;100.00;98932.09;10577926;28;20233;-64
2021/12/24 22:52:57;;;;;;;4.97;2.03;;;;;;;0.81;100.00;98942.22;10542950;28;20660;-70
2021/12/24 22:58:04;;;;;;;4.70;1.60;;;;;;;0.82;100.00;98949.03;10542855;28;20215;-69
2021/12/24 23:03:10;;;;;;;4.87;2.47;;;;;;;0.77;100.00;98978.78;10542578;28;20243;-66
2021/12/24 23:08:15;;;;;;;4.37;2.03;;;;;;;0.59;100.00;98994.81;10540361;28;20211;-69
2021/12/24 23:13:19;;;;;;;8.03;2.73;;;;;;;0.54;100.00;98993.94;10540339;28;20247;-64
2021/12/24 23:18:27;;;;;;;4.03;2.00;;;;;;;0.42;100.00;99010.84;10539979;28;20755;-66
2021/12/24 23:23:33;;;;;;;5.77;2.63;;;;;;;0.42;100.00;99018.50;10540365;28;20229;-68
2021/12/24 23:28:39;;;;;;;6.07;2.57;;;;;;;0.38;100.00;99043.13;10543350;28;20215;-68
2021/12/24 23:33:43;;;;;;;5.07;2.40;;;;;;;0.42;100.00;99060.19;10543158;28;20559;-68
2021/12/24 23:38:47;;;;;;;6.33;2.70;;;;;;;0.34;100.00;99073.72;10542233;28;20219;-68
2021/12/24 23:43:54;;;;;;;4.37;1.70;;;;;;;0.23;100.00;99075.28;10542710;28;20227;-64
2021/12/24 23:48:59;;;;;;;3.37;1.50;;;;;;;0.06;100.00;99098.09;10542739;28;20227;-67
2021/12/24 23:54:02;;;;;;;4.17;0.90;;;;;;;0.01;100.00;99112.47;10542068;28;20573;-65
2021/12/24 23:59:05;;;;;;;3.73;1.60;;;;;;;-0.13;100.00;99119.97;10542193;28;20208;-67
